sensor_id;sensor_type;location;lat;lon;timestamp;temperature;humidity
44513;DHT22;30219;50.588;9.504;2022-11-20T00:00:00;-2.20;99.90
44513;DHT22;30219;50.588;9.504;2022-11-20T00:02:26;-2.20;99.90
44513;DHT22;30219;50.588;9.504;2022-11-20T00:04:51;-2.20;99.90
44513;DHT22;30219;50.588;9.504;2022-11-20T00:07:17;-2.20;99.90
44513;DHT22;30219;50.588;9.504;2022-11-20T00:09:42;-2.20;99.90
44513;DHT22;30219;50.588;9.504;2022-11-20T00:12:08;-2.20;99.90
44513;DHT22;30219;50.588;9.504;2022-11-20T00:14:34;-2.20;99.90
44513;DHT22;30219;50.588;9.504;2022-11-20T00:16:59;-2.20;99.90
44513;DHT22;30219;50.588;9.504;2022-11-20T00:19:25;-2.10;99.90
44513;DHT22;30219;50.588;9.504;2022-11-20T00:21:51;-2.20;99.90
44513;DHT22;30219;50.588;9.504;2022-11-20T00:24:17;-2.20;99.90
44513;DHT22;30219;50.588;9.504;2022-11-20T00:26:42;-2.20;99.90
44513;DHT22;30219;50.588;9.504;2022-11-20T00:29:09;-2.20;99.90
44513;DHT22;30219;50.588;9.504;2022-11-20T00:31:35;-2.20;99.90
44513;DHT22;30219;50.588;9.504;2022-11-20T00:34:00;-2.10;99.90
44513;DHT22;30219;50.588;9.504;2022-11-20T00:36:28;-2.10;99.90
44513;DHT22;30219;50.588;9.504;2022-11-20T00:38:56;-2.00;99.90
44513;DHT22;30219;50.588;9.504;2022-11-20T00:41:22;-2.00;99.90
44513;DHT22;30219;50.588;9.504;2022-11-20T00:43:48;-1.90;99.90
44513;DHT22;30219;50.588;9.504;2022-11-20T00:46:18;-1.90;99.90
44513;DHT22;30219;50.588;9.504;2022-11-20T00:48:44;-1.90;99.90
44513;DHT22;30219;50.588;9.504;2022-11-20T00:51:15;-1.90;99.90
44513;DHT22;30219;50.588;9.504;2022-11-20T00:53:41;-1.90;99.90
44513;DHT22;30219;50.588;9.504;2022-11-20T00:56:10;-2.00;99.90
44513;DHT22;30219;50.588;9.504;2022-11-20T00:58:37;-1.90;99.90
44513;DHT22;30219;50.588;9.504;2022-11-20T01:01:24;-2.00;99.90
44513;DHT22;30219;50.588;9.504;2022-11-20T01:03:52;-2.00;99.90
44513;DHT22;30219;50.588;9.504;2022-11-20T01:06:23;-2.00;99.90
44513;DHT22;30219;50.588;9.504;2022-11-20T01:08:50;-2.00;99.90
44513;DHT22;30219;50.588;9.504;2022-11-20T01:11:21;-2.00;99.90
44513;DHT22;30219;50.588;9.504;2022-11-20T01:13:48;-2.00;99.90
44513;DHT22;30219;50.588;9.504;2022-11-20T01:16:19;-2.00;99.90
44513;DHT22;30219;50.588;9.504;2022-11-20T01:18:48;-2.00;99.90
44513;DHT22;30219;50.588;9.504;2022-11-20T01:21:16;-2.00;99.90
44513;DHT22;30219;50.588;9.504;2022-11-20T01:23:42;-2.00;99.90
44513;DHT22;30219;50.588;9.504;2022-11-20T01:26:14;-1.90;99.90
44513;DHT22;30219;50.588;9.504;2022-11-20T01:28:41;-1.90;99.90
44513;DHT22;30219;50.588;9.504;2022-11-20T01:31:15;-1.90;99.90
44513;DHT22;30219;50.588;9.504;2022-11-20T01:33:42;-1.90;99.90
44513;DHT22;30219;50.588;9.504;2022-11-20T01:36:09;-1.90;99.90
44513;DHT22;30219;50.588;9.504;2022-11-20T01:38:35;-2.00;99.90
44513;DHT22;30219;50.588;9.504;2022-11-20T01:41:00;-2.00;99.90
44513;DHT22;30219;50.588;9.504;2022-11-20T01:43:26;-1.90;99.90
44513;DHT22;30219;50.588;9.504;2022-11-20T01:46:16;-1.90;99.90
44513;DHT22;30219;50.588;9.504;2022-11-20T01:53:53;-2.00;99.90
44513;DHT22;30219;50.588;9.504;2022-11-20T01:56:21;-2.00;99.90
44513;DHT22;30219;50.588;9.504;2022-11-20T01:58:52;-2.00;99.90
44513;DHT22;30219;50.588;9.504;2022-11-20T02:01:20;-2.10;99.90
44513;DHT22;30219;50.588;9.504;2022-11-20T02:03:46;-2.10;99.90
44513;DHT22;30219;50.588;9.504;2022-11-20T02:06:52;-2.10;99.90
44513;DHT22;30219;50.588;9.504;2022-11-20T02:09:20;-2.00;99.90
44513;DHT22;30219;50.588;9.504;2022-11-20T02:11:46;-1.90;99.90
44513;DHT22;30219;50.588;9.504;2022-11-20T02:14:12;-1.80;99.90
44513;DHT22;30219;50.588;9.504;2022-11-20T02:16:43;-1.80;99.90
44513;DHT22;30219;50.588;9.504;2022-11-20T02:21:47;-1.70;99.90
44513;DHT22;30219;50.588;9.504;2022-11-20T02:24:15;-1.70;99.90
44513;DHT22;30219;50.588;9.504;2022-11-20T02:29:22;-1.60;99.90
44513;DHT22;30219;50.588;9.504;2022-11-20T02:31:48;-1.50;99.90
44513;DHT22;30219;50.588;9.504;2022-11-20T02:34:14;-1.50;99.90
44513;DHT22;30219;50.588;9.504;2022-11-20T02:36:41;-1.60;99.90
44513;DHT22;30219;50.588;9.504;2022-11-20T02:39:07;-1.70;99.90
44513;DHT22;30219;50.588;9.504;2022-11-20T02:41:35;-1.80;99.90
44513;DHT22;30219;50.588;9.504;2022-11-20T02:44:02;-1.80;99.90
44513;DHT22;30219;50.588;9.504;2022-11-20T02:46:28;-1.80;99.90
44513;DHT22;30219;50.588;9.504;2022-11-20T02:48:54;-1.80;99.90
44513;DHT22;30219;50.588;9.504;2022-11-20T02:51:19;-1.70;99.90
44513;DHT22;30219;50.588;9.504;2022-11-20T02:53:45;-1.80;99.90
44513;DHT22;30219;50.588;9.504;2022-11-20T02:56:10;-1.80;99.90
44513;DHT22;30219;50.588;9.504;2022-11-20T02:58:36;-1.80;99.90
44513;DHT22;30219;50.588;9.504;2022-11-20T03:01:01;-1.70;99.90
44513;DHT22;30219;50.588;9.504;2022-11-20T03:03:27;-1.60;99.90
44513;DHT22;30219;50.588;9.504;2022-11-20T03:05:52;-1.50;99.90
44513;DHT22;30219;50.588;9.504;2022-11-20T03:08:18;-1.50;99.90
44513;DHT22;30219;50.588;9.504;2022-11-20T03:10:43;-1.50;99.90
44513;DHT22;30219;50.588;9.504;2022-11-20T03:13:09;-1.50;99.90
44513;DHT22;30219;50.588;9.504;2022-11-20T03:15:36;-1.50;99.90
44513;DHT22;30219;50.588;9.504;2022-11-20T03:18:02;-1.50;99.90
44513;DHT22;30219;50.588;9.504;2022-11-20T03:20:27;-1.50;99.90
44513;DHT22;30219;50.588;9.504;2022-11-20T03:22:54;-1.50;99.90
44513;DHT22;30219;50.588;9.504;2022-11-20T03:25:20;-1.50;99.90
44513;DHT22;30219;50.588;9.504;2022-11-20T03:27:45;-1.50;99.90
44513;DHT22;30219;50.588;9.504;2022-11-20T03:30:11;-1.50;99.90
44513;DHT22;30219;50.588;9.504;2022-11-20T03:32:37;-1.60;99.90
44513;DHT22;30219;50.588;9.504;2022-11-20T03:35:02;-1.50;99.90
44513;DHT22;30219;50.588;9.504;2022-11-20T03:37:28;-1.60;99.90
44513;DHT22;30219;50.588;9.504;2022-11-20T03:39:53;-1.60;99.90
44513;DHT22;30219;50.588;9.504;2022-11-20T03:42:19;-1.50;99.90
44513;DHT22;30219;50.588;9.504;2022-11-20T03:45:04;-1.50;99.90
44513;DHT22;30219;50.588;9.504;2022-11-20T03:47:29;-1.50;99.90
44513;DHT22;30219;50.588;9.504;2022-11-20T03:49:55;-1.50;99.90
44513;DHT22;30219;50.588;9.504;2022-11-20T03:52:20;-1.40;99.90
44513;DHT22;30219;50.588;9.504;2022-11-20T03:54:46;-1.40;99.90
44513;DHT22;30219;50.588;9.504;2022-11-20T03:57:11;-1.30;99.90
44513;DHT22;30219;50.588;9.504;2022-11-20T03:59:37;-1.40;99.90
44513;DHT22;30219;50.588;9.504;2022-11-20T04:02:02;-1.40;99.90
44513;DHT22;30219;50.588;9.504;2022-11-20T04:04:28;-1.40;99.90
44513;DHT22;30219;50.588;9.504;2022-11-20T04:06:53;-1.40;99.90
44513;DHT22;30219;50.588;9.504;2022-11-20T04:09:19;-1.30;99.90
44513;DHT22;30219;50.588;9.504;2022-11-20T04:11:45;-1.30;99.90
44513;DHT22;30219;50.588;9.504;2022-11-20T04:14:14;-1.20;99.90
44513;DHT22;30219;50.588;9.504;2022-11-20T04:16:41;-1.20;99.90
44513;DHT22;30219;50.588;9.504;2022-11-20T04:19:10;-1.10;99.90
44513;DHT22;30219;50.588;9.504;2022-11-20T04:21:37;-1.20;99.90
44513;DHT22;30219;50.588;9.504;2022-11-20T04:24:03;-1.10;99.90
44513;DHT22;30219;50.588;9.504;2022-11-20T04:26:29;-1.10;99.90
44513;DHT22;30219;50.588;9.504;2022-11-20T04:28:56;-1.10;99.90
44513;DHT22;30219;50.588;9.504;2022-11-20T04:31:25;-1.00;99.90
44513;DHT22;30219;50.588;9.504;2022-11-20T04:33:51;-1.00;99.90
44513;DHT22;30219;50.588;9.504;2022-11-20T04:36:27;-1.00;99.90
44513;DHT22;30219;50.588;9.504;2022-11-20T04:38:58;-1.00;99.90
44513;DHT22;30219;50.588;9.504;2022-11-20T04:41:26;-1.10;99.90
44513;DHT22;30219;50.588;9.504;2022-11-20T04:43:54;-1.10;99.90
44513;DHT22;30219;50.588;9.504;2022-11-20T04:46:25;-1.00;99.90
44513;DHT22;30219;50.588;9.504;2022-11-20T04:48:51;-1.00;99.90
44513;DHT22;30219;50.588;9.504;2022-11-20T04:51:16;-1.00;99.90
44513;DHT22;30219;50.588;9.504;2022-11-20T04:53:42;-1.00;99.90
44513;DHT22;30219;50.588;9.504;2022-11-20T04:56:10;-1.00;99.90
44513;DHT22;30219;50.588;9.504;2022-11-20T04:58:36;-1.00;99.90
44513;DHT22;30219;50.588;9.504;2022-11-20T05:01:23;-1.00;99.90
44513;DHT22;30219;50.588;9.504;2022-11-20T05:03:49;-1.00;99.90
44513;DHT22;30219;50.588;9.504;2022-11-20T05:06:16;-1.00;99.90
44513;DHT22;30219;50.588;9.504;2022-11-20T05:08:42;-1.00;99.90
44513;DHT22;30219;50.588;9.504;2022-11-20T05:11:13;-0.90;99.90
44513;DHT22;30219;50.588;9.504;2022-11-20T05:13:40;-0.90;99.90
44513;DHT22;30219;50.588;9.504;2022-11-20T05:16:10;-0.90;99.90
44513;DHT22;30219;50.588;9.504;2022-11-20T05:18:37;-0.90;99.90
44513;DHT22;30219;50.588;9.504;2022-11-20T05:21:04;-0.80;99.90
44513;DHT22;30219;50.588;9.504;2022-11-20T05:23:30;-0.70;99.90
44513;DHT22;30219;50.588;9.504;2022-11-20T05:25:57;-0.70;99.90
44513;DHT22;30219;50.588;9.504;2022-11-20T05:28:23;-0.70;99.90
44513;DHT22;30219;50.588;9.504;2022-11-20T05:30:49;-0.80;99.90
44513;DHT22;30219;50.588;9.504;2022-11-20T05:33:15;-0.80;99.90
44513;DHT22;30219;50.588;9.504;2022-11-20T05:35:41;-0.80;99.90
44513;DHT22;30219;50.588;9.504;2022-11-20T05:38:06;-0.70;99.90
44513;DHT22;30219;50.588;9.504;2022-11-20T05:40:32;-0.70;99.90
44513;DHT22;30219;50.588;9.504;2022-11-20T05:42:58;-0.60;99.90
44513;DHT22;30219;50.588;9.504;2022-11-20T05:45:24;-0.60;99.90
44513;DHT22;30219;50.588;9.504;2022-11-20T05:47:50;-0.60;99.90
44513;DHT22;30219;50.588;9.504;2022-11-20T05:50:15;-0.60;99.90
44513;DHT22;30219;50.588;9.504;2022-11-20T05:52:41;-0.50;99.90
44513;DHT22;30219;50.588;9.504;2022-11-20T05:55:07;-0.60;99.90
44513;DHT22;30219;50.588;9.504;2022-11-20T05:57:33;-0.50;99.90
44513;DHT22;30219;50.588;9.504;2022-11-20T05:59:59;-0.50;99.90
44513;DHT22;30219;50.588;9.504;2022-11-20T06:02:24;-0.50;99.90
44513;DHT22;30219;50.588;9.504;2022-11-20T06:04:50;-0.50;99.90
44513;DHT22;30219;50.588;9.504;2022-11-20T06:07:15;-0.50;99.90
44513;DHT22;30219;50.588;9.504;2022-11-20T06:09:41;-0.50;99.90
44513;DHT22;30219;50.588;9.504;2022-11-20T06:12:07;-0.40;99.90
44513;DHT22;30219;50.588;9.504;2022-11-20T06:14:33;-0.40;99.90
44513;DHT22;30219;50.588;9.504;2022-11-20T06:16:59;-0.50;99.90
44513;DHT22;30219;50.588;9.504;2022-11-20T06:19:24;-0.60;99.90
44513;DHT22;30219;50.588;9.504;2022-11-20T06:21:50;-0.60;99.90
44513;DHT22;30219;50.588;9.504;2022-11-20T06:24:16;-0.60;99.90
44513;DHT22;30219;50.588;9.504;2022-11-20T06:26:42;-0.50;99.90
44513;DHT22;30219;50.588;9.504;2022-11-20T06:29:08;-0.40;99.90
44513;DHT22;30219;50.588;9.504;2022-11-20T06:31:33;-0.40;99.90
44513;DHT22;30219;50.588;9.504;2022-11-20T06:34:05;-0.40;99.90
44513;DHT22;30219;50.588;9.504;2022-11-20T06:36:32;-0.40;99.90
44513;DHT22;30219;50.588;9.504;2022-11-20T06:38:58;-0.40;99.90
44513;DHT22;30219;50.588;9.504;2022-11-20T06:41:24;-0.40;99.90
44513;DHT22;30219;50.588;9.504;2022-11-20T06:43:50;-0.40;99.90
44513;DHT22;30219;50.588;9.504;2022-11-20T06:46:17;-0.40;99.90
44513;DHT22;30219;50.588;9.504;2022-11-20T06:48:43;-0.30;99.90
44513;DHT22;30219;50.588;9.504;2022-11-20T06:51:09;-0.30;99.90
44513;DHT22;30219;50.588;9.504;2022-11-20T06:53:36;-0.30;99.90
44513;DHT22;30219;50.588;9.504;2022-11-20T06:56:02;-0.30;99.90
44513;DHT22;30219;50.588;9.504;2022-11-20T06:58:29;-0.30;99.90
44513;DHT22;30219;50.588;9.504;2022-11-20T07:01:02;-0.20;99.90
44513;DHT22;30219;50.588;9.504;2022-11-20T07:03:28;-0.30;99.90
44513;DHT22;30219;50.588;9.504;2022-11-20T07:05:58;-0.30;99.90
44513;DHT22;30219;50.588;9.504;2022-11-20T07:08:24;-0.30;99.90
44513;DHT22;30219;50.588;9.504;2022-11-20T07:10:50;-0.40;99.90
44513;DHT22;30219;50.588;9.504;2022-11-20T07:13:16;-0.40;99.90
44513;DHT22;30219;50.588;9.504;2022-11-20T07:15:41;-0.40;99.90
44513;DHT22;30219;50.588;9.504;2022-11-20T07:18:07;-0.40;99.90
44513;DHT22;30219;50.588;9.504;2022-11-20T07:20:33;-0.40;99.90
44513;DHT22;30219;50.588;9.504;2022-11-20T07:22:58;-0.40;99.90
44513;DHT22;30219;50.588;9.504;2022-11-20T07:25:25;-0.40;99.90
44513;DHT22;30219;50.588;9.504;2022-11-20T07:27:51;-0.40;99.90
44513;DHT22;30219;50.588;9.504;2022-11-20T07:30:16;-0.40;99.90
44513;DHT22;30219;50.588;9.504;2022-11-20T07:32:42;-0.40;99.90
44513;DHT22;30219;50.588;9.504;2022-11-20T07:35:08;-0.30;99.90
44513;DHT22;30219;50.588;9.504;2022-11-20T07:37:36;-0.30;99.90
44513;DHT22;30219;50.588;9.504;2022-11-20T07:40:02;-0.20;99.90
44513;DHT22;30219;50.588;9.504;2022-11-20T07:42:28;-0.20;99.90
44513;DHT22;30219;50.588;9.504;2022-11-20T07:44:54;-0.20;99.90
44513;DHT22;30219;50.588;9.504;2022-11-20T07:47:19;-0.10;99.90
44513;DHT22;30219;50.588;9.504;2022-11-20T07:49:45;-0.10;99.90
44513;DHT22;30219;50.588;9.504;2022-11-20T07:52:11;-0.10;99.90
44513;DHT22;30219;50.588;9.504;2022-11-20T07:54:36;-0.10;99.90
44513;DHT22;30219;50.588;9.504;2022-11-20T07:57:02;-0.10;99.90
44513;DHT22;30219;50.588;9.504;2022-11-20T07:59:28;-0.10;99.90
44513;DHT22;30219;50.588;9.504;2022-11-20T08:01:53;-0.10;99.90
44513;DHT22;30219;50.588;9.504;2022-11-20T08:04:19;-0.10;99.90
44513;DHT22;30219;50.588;9.504;2022-11-20T08:06:44;0.00;99.90
44513;DHT22;30219;50.588;9.504;2022-11-20T08:09:10;0.00;99.90
44513;DHT22;30219;50.588;9.504;2022-11-20T08:11:35;0.00;99.90
44513;DHT22;30219;50.588;9.504;2022-11-20T08:14:19;0.10;99.90
44513;DHT22;30219;50.588;9.504;2022-11-20T08:16:47;0.10;99.90
44513;DHT22;30219;50.588;9.504;2022-11-20T08:19:14;0.10;99.90
44513;DHT22;30219;50.588;9.504;2022-11-20T08:21:40;0.20;99.90
44513;DHT22;30219;50.588;9.504;2022-11-20T08:24:07;0.20;99.90
44513;DHT22;30219;50.588;9.504;2022-11-20T08:26:33;0.30;99.90
44513;DHT22;30219;50.588;9.504;2022-11-20T08:28:59;0.30;99.90
44513;DHT22;30219;50.588;9.504;2022-11-20T08:31:26;0.40;99.90
44513;DHT22;30219;50.588;9.504;2022-11-20T08:33:52;0.50;99.90
44513;DHT22;30219;50.588;9.504;2022-11-20T08:36:18;0.50;99.90
44513;DHT22;30219;50.588;9.504;2022-11-20T08:38:48;0.50;99.90
44513;DHT22;30219;50.588;9.504;2022-11-20T08:41:14;0.50;99.90
44513;DHT22;30219;50.588;9.504;2022-11-20T08:43:50;0.60;99.90
44513;DHT22;30219;50.588;9.504;2022-11-20T08:46:16;0.60;99.90
44513;DHT22;30219;50.588;9.504;2022-11-20T08:48:42;0.60;99.90
44513;DHT22;30219;50.588;9.504;2022-11-20T08:51:08;0.60;99.90
44513;DHT22;30219;50.588;9.504;2022-11-20T08:53:34;0.70;99.90
44513;DHT22;30219;50.588;9.504;2022-11-20T08:56:00;0.70;99.90
44513;DHT22;30219;50.588;9.504;2022-11-20T08:58:26;0.70;99.90
44513;DHT22;30219;50.588;9.504;2022-11-20T09:00:51;0.70;99.90
44513;DHT22;30219;50.588;9.504;2022-11-20T09:03:17;0.80;99.90
44513;DHT22;30219;50.588;9.504;2022-11-20T09:05:43;0.80;99.90
44513;DHT22;30219;50.588;9.504;2022-11-20T09:08:09;0.80;99.90
44513;DHT22;30219;50.588;9.504;2022-11-20T09:10:34;0.90;99.90
44513;DHT22;30219;50.588;9.504;2022-11-20T09:13:00;0.80;99.90
44513;DHT22;30219;50.588;9.504;2022-11-20T09:15:27;0.80;99.90
44513;DHT22;30219;50.588;9.504;2022-11-20T09:17:57;0.70;99.90
44513;DHT22;30219;50.588;9.504;2022-11-20T09:20:24;0.80;99.90
44513;DHT22;30219;50.588;9.504;2022-11-20T09:22:50;0.80;99.90
44513;DHT22;30219;50.588;9.504;2022-11-20T09:25:15;0.90;99.90
44513;DHT22;30219;50.588;9.504;2022-11-20T09:27:41;1.00;99.90
44513;DHT22;30219;50.588;9.504;2022-11-20T09:30:09;1.00;99.90
44513;DHT22;30219;50.588;9.504;2022-11-20T09:32:35;1.00;99.90
44513;DHT22;30219;50.588;9.504;2022-11-20T09:35:01;1.10;99.90
44513;DHT22;30219;50.588;9.504;2022-11-20T09:37:27;1.10;99.90
44513;DHT22;30219;50.588;9.504;2022-11-20T09:39:52;1.10;99.90
44513;DHT22;30219;50.588;9.504;2022-11-20T09:42:37;1.10;99.90
44513;DHT22;30219;50.588;9.504;2022-11-20T09:45:21;1.20;99.90
44513;DHT22;30219;50.588;9.504;2022-11-20T09:56:33;1.90;99.90
44513;DHT22;30219;50.588;9.504;2022-11-20T09:59:03;2.40;99.90
44513;DHT22;30219;50.588;9.504;2022-11-20T10:01:32;2.60;99.90
44513;DHT22;30219;50.588;9.504;2022-11-20T10:04:19;3.00;99.90
44513;DHT22;30219;50.588;9.504;2022-11-20T10:07:11;3.50;99.90
44513;DHT22;30219;50.588;9.504;2022-11-20T10:09:40;4.20;99.90
44513;DHT22;30219;50.588;9.504;2022-11-20T10:26:22;6.60;99.90
44513;DHT22;30219;50.588;9.504;2022-11-20T10:29:13;6.80;99.90
44513;DHT22;30219;50.588;9.504;2022-11-20T10:31:54;6.70;99.90
44513;DHT22;30219;50.588;9.504;2022-11-20T10:34:29;6.30;99.90
44513;DHT22;30219;50.588;9.504;2022-11-20T10:37:05;5.90;99.90
44513;DHT22;30219;50.588;9.504;2022-11-20T10:40:01;5.60;99.90
44513;DHT22;30219;50.588;9.504;2022-11-20T10:42:37;5.40;99.90
44513;DHT22;30219;50.588;9.504;2022-11-20T10:48:01;5.00;99.90
44513;DHT22;30219;50.588;9.504;2022-11-20T10:50:36;4.80;99.90
44513;DHT22;30219;50.588;9.504;2022-11-20T10:53:16;4.80;99.90
44513;DHT22;30219;50.588;9.504;2022-11-20T10:55:54;4.70;99.90
44513;DHT22;30219;50.588;9.504;2022-11-20T10:58:38;4.80;99.90
44513;DHT22;30219;50.588;9.504;2022-11-20T11:01:17;4.80;99.90
44513;DHT22;30219;50.588;9.504;2022-11-20T11:03:43;4.80;99.90
44513;DHT22;30219;50.588;9.504;2022-11-20T11:06:31;5.00;99.90
44513;DHT22;30219;50.588;9.504;2022-11-20T11:09:03;4.90;99.90
44513;DHT22;30219;50.588;9.504;2022-11-20T11:11:32;4.90;99.90
44513;DHT22;30219;50.588;9.504;2022-11-20T11:16:34;5.10;99.90
44513;DHT22;30219;50.588;9.504;2022-11-20T11:19:10;5.20;99.90
44513;DHT22;30219;50.588;9.504;2022-11-20T11:21:37;5.40;99.90
44513;DHT22;30219;50.588;9.504;2022-11-20T11:24:25;5.30;99.90
44513;DHT22;30219;50.588;9.504;2022-11-20T11:27:02;5.30;99.90
44513;DHT22;30219;50.588;9.504;2022-11-20T11:29:32;5.30;99.90
44513;DHT22;30219;50.588;9.504;2022-11-20T11:32:12;5.10;99.90
44513;DHT22;30219;50.588;9.504;2022-11-20T11:34:38;4.90;99.90
44513;DHT22;30219;50.588;9.504;2022-11-20T11:37:05;4.70;99.90
44513;DHT22;30219;50.588;9.504;2022-11-20T11:39:35;4.60;99.90
44513;DHT22;30219;50.588;9.504;2022-11-20T11:42:01;4.70;99.90
44513;DHT22;30219;50.588;9.504;2022-11-20T11:44:32;4.60;99.90
44513;DHT22;30219;50.588;9.504;2022-11-20T11:47:30;4.60;99.90
44513;DHT22;30219;50.588;9.504;2022-11-20T11:52:58;4.20;99.90
44513;DHT22;30219;50.588;9.504;2022-11-20T11:55:35;4.10;99.90
44513;DHT22;30219;50.588;9.504;2022-11-20T11:58:27;4.20;99.90
44513;DHT22;30219;50.588;9.504;2022-11-20T12:01:24;4.30;99.90
44513;DHT22;30219;50.588;9.504;2022-11-20T12:06:30;4.80;99.90
44513;DHT22;30219;50.588;9.504;2022-11-20T12:09:03;4.90;99.90
44513;DHT22;30219;50.588;9.504;2022-11-20T12:16:27;4.90;99.90
44513;DHT22;30219;50.588;9.504;2022-11-20T12:18:53;4.70;99.90
44513;DHT22;30219;50.588;9.504;2022-11-20T12:21:58;4.70;99.90
44513;DHT22;30219;50.588;9.504;2022-11-20T12:27:37;4.40;99.90
44513;DHT22;30219;50.588;9.504;2022-11-20T12:30:16;4.40;99.90
44513;DHT22;30219;50.588;9.504;2022-11-20T12:32:59;4.30;99.90
44513;DHT22;30219;50.588;9.504;2022-11-20T12:41:19;3.80;99.90
44513;DHT22;30219;50.588;9.504;2022-11-20T12:44:50;3.90;99.90
44513;DHT22;30219;50.588;9.504;2022-11-20T12:51:18;3.70;99.90
44513;DHT22;30219;50.588;9.504;2022-11-20T12:53:54;3.70;99.90
44513;DHT22;30219;50.588;9.504;2022-11-20T12:56:44;3.70;99.90
44513;DHT22;30219;50.588;9.504;2022-11-20T13:07:58;3.60;99.90
44513;DHT22;30219;50.588;9.504;2022-11-20T13:13:18;3.60;99.90
44513;DHT22;30219;50.588;9.504;2022-11-20T13:16:08;3.70;99.90
44513;DHT22;30219;50.588;9.504;2022-11-20T13:18:39;3.60;99.90
44513;DHT22;30219;50.588;9.504;2022-11-20T13:27:03;3.60;99.90
44513;DHT22;30219;50.588;9.504;2022-11-20T13:29:29;3.50;99.90
44513;DHT22;30219;50.588;9.504;2022-11-20T13:32:15;3.50;99.90
44513;DHT22;30219;50.588;9.504;2022-11-20T13:34:56;3.40;99.90
44513;DHT22;30219;50.588;9.504;2022-11-20T13:37:36;3.40;99.90
44513;DHT22;30219;50.588;9.504;2022-11-20T13:43:01;3.40;99.90
44513;DHT22;30219;50.588;9.504;2022-11-20T13:45:29;3.30;99.90
44513;DHT22;30219;50.588;9.504;2022-11-20T13:47:56;3.30;99.90
44513;DHT22;30219;50.588;9.504;2022-11-20T13:50:45;3.30;99.90
44513;DHT22;30219;50.588;9.504;2022-11-20T13:53:33;3.40;99.90
44513;DHT22;30219;50.588;9.504;2022-11-20T13:56:23;3.40;99.90
44513;DHT22;30219;50.588;9.504;2022-11-20T13:58:59;3.30;99.90
44513;DHT22;30219;50.588;9.504;2022-11-20T14:01:29;3.30;99.90
44513;DHT22;30219;50.588;9.504;2022-11-20T14:04:01;3.30;99.90
44513;DHT22;30219;50.588;9.504;2022-11-20T14:06:42;3.30;99.90
44513;DHT22;30219;50.588;9.504;2022-11-20T14:09:24;3.30;99.90
44513;DHT22;30219;50.588;9.504;2022-11-20T14:11:50;3.20;99.90
44513;DHT22;30219;50.588;9.504;2022-11-20T14:14:18;3.20;99.90
44513;DHT22;30219;50.588;9.504;2022-11-20T14:16:44;3.00;99.90
44513;DHT22;30219;50.588;9.504;2022-11-20T14:21:46;3.00;99.90
44513;DHT22;30219;50.588;9.504;2022-11-20T14:24:13;3.10;99.90
44513;DHT22;30219;50.588;9.504;2022-11-20T14:26:45;3.10;99.90
44513;DHT22;30219;50.588;9.504;2022-11-20T14:29:34;3.10;99.90
44513;DHT22;30219;50.588;9.504;2022-11-20T14:32:01;3.10;99.90
44513;DHT22;30219;50.588;9.504;2022-11-20T14:34:30;3.10;99.90
44513;DHT22;30219;50.588;9.504;2022-11-20T14:37:02;3.10;99.90
44513;DHT22;30219;50.588;9.504;2022-11-20T14:39:36;3.20;99.90
44513;DHT22;30219;50.588;9.504;2022-11-20T14:42:22;3.20;99.90
44513;DHT22;30219;50.588;9.504;2022-11-20T14:44:50;3.10;99.90
44513;DHT22;30219;50.588;9.504;2022-11-20T14:47:19;3.10;99.90
44513;DHT22;30219;50.588;9.504;2022-11-20T14:49:46;3.10;99.90
44513;DHT22;30219;50.588;9.504;2022-11-20T14:52:19;3.00;99.90
44513;DHT22;30219;50.588;9.504;2022-11-20T14:54:47;2.90;99.90
44513;DHT22;30219;50.588;9.504;2022-11-20T14:57:34;2.80;99.90
44513;DHT22;30219;50.588;9.504;2022-11-20T15:00:21;2.70;99.90
44513;DHT22;30219;50.588;9.504;2022-11-20T15:02:49;2.60;99.90
44513;DHT22;30219;50.588;9.504;2022-11-20T15:05:16;2.50;99.90
44513;DHT22;30219;50.588;9.504;2022-11-20T15:07:47;2.50;99.90
44513;DHT22;30219;50.588;9.504;2022-11-20T15:10:24;2.30;99.90
44513;DHT22;30219;50.588;9.504;2022-11-20T15:13:02;2.30;99.90
44513;DHT22;30219;50.588;9.504;2022-11-20T15:15:50;2.20;99.90
44513;DHT22;30219;50.588;9.504;2022-11-20T15:18:26;2.30;99.90
44513;DHT22;30219;50.588;9.504;2022-11-20T15:20:55;2.40;99.90
44513;DHT22;30219;50.588;9.504;2022-11-20T15:23:21;2.50;99.90
44513;DHT22;30219;50.588;9.504;2022-11-20T15:25:47;2.50;99.90
44513;DHT22;30219;50.588;9.504;2022-11-20T15:30:43;2.50;99.90
44513;DHT22;30219;50.588;9.504;2022-11-20T15:33:09;2.50;99.90
44513;DHT22;30219;50.588;9.504;2022-11-20T15:35:34;2.50;99.90
44513;DHT22;30219;50.588;9.504;2022-11-20T15:38:00;2.50;99.90
44513;DHT22;30219;50.588;9.504;2022-11-20T15:40:25;2.40;99.90
44513;DHT22;30219;50.588;9.504;2022-11-20T15:42:51;2.40;99.90
44513;DHT22;30219;50.588;9.504;2022-11-20T15:45:40;2.40;99.90
44513;DHT22;30219;50.588;9.504;2022-11-20T15:48:17;2.30;99.90
44513;DHT22;30219;50.588;9.504;2022-11-20T15:50:52;2.30;99.90
44513;DHT22;30219;50.588;9.504;2022-11-20T15:53:21;2.30;99.90
44513;DHT22;30219;50.588;9.504;2022-11-20T15:55:47;2.30;99.90
44513;DHT22;30219;50.588;9.504;2022-11-20T15:58:13;2.30;99.90
44513;DHT22;30219;50.588;9.504;2022-11-20T16:00:38;2.20;99.90
44513;DHT22;30219;50.588;9.504;2022-11-20T16:03:04;2.30;99.90
44513;DHT22;30219;50.588;9.504;2022-11-20T16:05:29;2.30;99.90
44513;DHT22;30219;50.588;9.504;2022-11-20T16:07:56;2.30;99.90
44513;DHT22;30219;50.588;9.504;2022-11-20T16:10:22;2.20;99.90
44513;DHT22;30219;50.588;9.504;2022-11-20T16:12:48;2.20;99.90
44513;DHT22;30219;50.588;9.504;2022-11-20T16:15:33;2.20;99.90
44513;DHT22;30219;50.588;9.504;2022-11-20T16:18:12;2.30;99.90
44513;DHT22;30219;50.588;9.504;2022-11-20T16:20:39;2.20;99.90
44513;DHT22;30219;50.588;9.504;2022-11-20T16:23:05;2.20;99.90
44513;DHT22;30219;50.588;9.504;2022-11-20T16:25:31;2.20;99.90
44513;DHT22;30219;50.588;9.504;2022-11-20T16:27:56;2.20;99.90
44513;DHT22;30219;50.588;9.504;2022-11-20T16:30:22;2.20;99.90
44513;DHT22;30219;50.588;9.504;2022-11-20T16:32:48;2.10;99.90
44513;DHT22;30219;50.588;9.504;2022-11-20T16:35:13;2.10;99.90
44513;DHT22;30219;50.588;9.504;2022-11-20T16:37:39;2.10;99.90
44513;DHT22;30219;50.588;9.504;2022-11-20T16:40:05;2.10;99.90
44513;DHT22;30219;50.588;9.504;2022-11-20T16:42:35;2.20;99.90
44513;DHT22;30219;50.588;9.504;2022-11-20T16:45:00;2.20;99.90
44513;DHT22;30219;50.588;9.504;2022-11-20T16:47:26;2.20;99.90
44513;DHT22;30219;50.588;9.504;2022-11-20T16:49:52;2.20;99.90
44513;DHT22;30219;50.588;9.504;2022-11-20T16:52:17;2.30;99.90
44513;DHT22;30219;50.588;9.504;2022-11-20T16:54:43;2.30;99.90
44513;DHT22;30219;50.588;9.504;2022-11-20T16:57:08;2.30;99.90
44513;DHT22;30219;50.588;9.504;2022-11-20T16:59:34;2.30;99.90
44513;DHT22;30219;50.588;9.504;2022-11-20T17:01:59;2.30;99.90
44513;DHT22;30219;50.588;9.504;2022-11-20T17:04:25;2.30;99.90
44513;DHT22;30219;50.588;9.504;2022-11-20T17:06:50;2.30;99.90
44513;DHT22;30219;50.588;9.504;2022-11-20T17:09:16;2.30;99.90
44513;DHT22;30219;50.588;9.504;2022-11-20T17:11:42;2.30;99.90
44513;DHT22;30219;50.588;9.504;2022-11-20T17:14:12;2.40;99.90
44513;DHT22;30219;50.588;9.504;2022-11-20T17:16:37;2.40;99.90
44513;DHT22;30219;50.588;9.504;2022-11-20T17:19:04;2.40;99.90